sensor_id;sensor_type;location;lat;lon;timestamp;pressure;altitude;pressure_sealevel;temperature;humidity
6567;BME280;3317;43.994;22.878;2023-03-23T00:00:59;101144.22;;;13.11;68.86
6567;BME280;3317;43.994;22.878;2023-03-23T00:03:26;101117.47;;;12.98;69.01
6567;BME280;3317;43.994;22.878;2023-03-23T00:05:54;101140.13;;;13.07;69.42
6567;BME280;3317;43.994;22.878;2023-03-23T00:08:26;101135.72;;;13.06;69.32
6567;BME280;3317;43.994;22.878;2023-03-23T00:10:54;101134.16;;;13.03;68.95
6567;BME280;3317;43.994;22.878;2023-03-23T00:13:22;101136.03;;;13.03;69.05
6567;BME280;3317;43.994;22.878;2023-03-23T00:15:49;101136.19;;;13.01;68.27
6567;BME280;3317;43.994;22.878;2023-03-23T00:18:18;101140.75;;;13.01;67.76
6567;BME280;3317;43.994;22.878;2023-03-23T00:20:48;101139.06;;;13.00;67.31
6567;BME280;3317;43.994;22.878;2023-03-23T00:23:16;101132.78;;;12.99;67.64
6567;BME280;3317;43.994;22.878;2023-03-23T00:25:47;101130.38;;;12.96;67.75
6567;BME280;3317;43.994;22.878;2023-03-23T00:28:15;101140.53;;;12.94;67.47
6567;BME280;3317;43.994;22.878;2023-03-23T00:30:42;101131.56;;;12.93;67.34
6567;BME280;3317;43.994;22.878;2023-03-23T00:33:11;101138.16;;;12.91;67.91
6567;BME280;3317;43.994;22.878;2023-03-23T00:35:40;101125.22;;;12.85;67.09
6567;BME280;3317;43.994;22.878;2023-03-23T00:38:10;101134.91;;;12.87;67.27
6567;BME280;3317;43.994;22.878;2023-03-23T00:40:36;101084.56;;;12.57;67.08
6567;BME280;3317;43.994;22.878;2023-03-23T00:43:05;101117.13;;;12.75;67.31
6567;BME280;3317;43.994;22.878;2023-03-23T00:45:32;101127.53;;;12.79;66.59
6567;BME280;3317;43.994;22.878;2023-03-23T00:48:00;101130.25;;;12.79;67.55
6567;BME280;3317;43.994;22.878;2023-03-23T00:50:30;101132.47;;;12.76;68.33
6567;BME280;3317;43.994;22.878;2023-03-23T00:52:57;101131.91;;;12.72;68.90
6567;BME280;3317;43.994;22.878;2023-03-23T00:55:24;101126.09;;;12.67;69.46
6567;BME280;3317;43.994;22.878;2023-03-23T00:57:51;101129.81;;;12.66;69.34
6567;BME280;3317;43.994;22.878;2023-03-23T01:00:21;101125.84;;;12.60;69.29
6567;BME280;3317;43.994;22.878;2023-03-23T01:02:48;101126.03;;;12.59;69.27
6567;BME280;3317;43.994;22.878;2023-03-23T01:05:17;101133.66;;;12.55;68.08
6567;BME280;3317;43.994;22.878;2023-03-23T01:07:44;101131.25;;;12.52;68.06
6567;BME280;3317;43.994;22.878;2023-03-23T01:10:13;101138.53;;;12.51;68.95
6567;BME280;3317;43.994;22.878;2023-03-23T01:12:42;101129.69;;;12.49;68.41
6567;BME280;3317;43.994;22.878;2023-03-23T01:15:13;101126.28;;;12.47;67.93
6567;BME280;3317;43.994;22.878;2023-03-23T01:17:42;101136.13;;;12.48;67.87
6567;BME280;3317;43.994;22.878;2023-03-23T01:20:10;101118.91;;;12.39;67.19
6567;BME280;3317;43.994;22.878;2023-03-23T01:22:37;101134.56;;;12.46;66.67
6567;BME280;3317;43.994;22.878;2023-03-23T01:25:05;101125.72;;;12.44;66.56
6567;BME280;3317;43.994;22.878;2023-03-23T01:27:32;101139.47;;;12.42;65.95
6567;BME280;3317;43.994;22.878;2023-03-23T01:29:59;101135.03;;;12.41;65.73
6567;BME280;3317;43.994;22.878;2023-03-23T01:32:26;101140.81;;;12.38;65.50
6567;BME280;3317;43.994;22.878;2023-03-23T01:34:55;101147.38;;;12.35;65.08
6567;BME280;3317;43.994;22.878;2023-03-23T01:37:22;101142.28;;;12.32;65.70
6567;BME280;3317;43.994;22.878;2023-03-23T01:39:52;101139.72;;;12.31;66.14
6567;BME280;3317;43.994;22.878;2023-03-23T01:42:21;101143.75;;;12.27;66.27
6567;BME280;3317;43.994;22.878;2023-03-23T01:48:10;101136.94;;;12.22;67.22
6567;BME280;3317;43.994;22.878;2023-03-23T01:50:46;101139.97;;;12.19;68.27
6567;BME280;3317;43.994;22.878;2023-03-23T01:53:15;101137.25;;;12.19;67.72
6567;BME280;3317;43.994;22.878;2023-03-23T01:55:44;101129.69;;;12.13;68.05
6567;BME280;3317;43.994;22.878;2023-03-23T01:58:14;101133.09;;;12.15;68.17
6567;BME280;3317;43.994;22.878;2023-03-23T02:00:43;101133.41;;;12.12;68.77
6567;BME280;3317;43.994;22.878;2023-03-23T02:03:12;101130.72;;;12.12;68.02
6567;BME280;3317;43.994;22.878;2023-03-23T02:05:43;101135.13;;;12.13;68.21
6567;BME280;3317;43.994;22.878;2023-03-23T02:08:11;101135.13;;;12.13;68.39
6567;BME280;3317;43.994;22.878;2023-03-23T02:10:41;101125.41;;;12.10;68.68
6567;BME280;3317;43.994;22.878;2023-03-23T02:13:09;101134.75;;;12.08;68.88
6567;BME280;3317;43.994;22.878;2023-03-23T02:15:44;101141.19;;;12.07;70.46
6567;BME280;3317;43.994;22.878;2023-03-23T02:18:19;101132.63;;;12.02;71.14
6567;BME280;3317;43.994;22.878;2023-03-23T02:21:25;101139.56;;;11.86;72.81
6567;BME280;3317;43.994;22.878;2023-03-23T02:26:55;101133.47;;;11.56;75.16
6567;BME280;3317;43.994;22.878;2023-03-23T02:29:46;101138.31;;;11.52;75.66
6567;BME280;3317;43.994;22.878;2023-03-23T02:32:40;101143.38;;;11.47;75.69
6567;BME280;3317;43.994;22.878;2023-03-23T02:35:18;101127.53;;;11.33;76.52
6567;BME280;3317;43.994;22.878;2023-03-23T02:37:50;101145.66;;;11.42;77.05
6567;BME280;3317;43.994;22.878;2023-03-23T02:40:21;101144.38;;;11.36;77.32
6567;BME280;3317;43.994;22.878;2023-03-23T02:42:54;101160.41;;;11.39;77.33
6567;BME280;3317;43.994;22.878;2023-03-23T02:45:23;101145.66;;;11.42;77.36
6567;BME280;3317;43.994;22.878;2023-03-23T02:47:52;101156.75;;;11.49;76.70
6567;BME280;3317;43.994;22.878;2023-03-23T02:50:23;101157.31;;;11.52;76.55
6567;BME280;3317;43.994;22.878;2023-03-23T02:52:53;101159.72;;;11.55;76.91
6567;BME280;3317;43.994;22.878;2023-03-23T02:55:22;101147.34;;;11.53;77.09
6567;BME280;3317;43.994;22.878;2023-03-23T02:57:52;101140.03;;;11.53;76.99
6567;BME280;3317;43.994;22.878;2023-03-23T03:00:20;101092.19;;;11.24;75.38
6567;BME280;3317;43.994;22.878;2023-03-23T03:02:48;101162.81;;;11.71;74.67
6567;BME280;3317;43.994;22.878;2023-03-23T03:05:26;101162.38;;;11.75;75.24
6567;BME280;3317;43.994;22.878;2023-03-23T03:08:02;101158.47;;;11.78;74.36
6567;BME280;3317;43.994;22.878;2023-03-23T03:10:38;101163.44;;;11.82;74.10
6567;BME280;3317;43.994;22.878;2023-03-23T03:13:13;101158.72;;;11.84;73.07
6567;BME280;3317;43.994;22.878;2023-03-23T03:15:45;101169.00;;;11.91;72.58
6567;BME280;3317;43.994;22.878;2023-03-23T03:18:19;101173.41;;;11.92;72.22
6567;BME280;3317;43.994;22.878;2023-03-23T03:20:51;101156.88;;;11.85;72.14
6567;BME280;3317;43.994;22.878;2023-03-23T03:23:22;101173.78;;;11.97;71.95
6567;BME280;3317;43.994;22.878;2023-03-23T03:25:50;101177.06;;;12.01;71.35
6567;BME280;3317;43.994;22.878;2023-03-23T03:28:19;101174.34;;;12.01;71.38
6567;BME280;3317;43.994;22.878;2023-03-23T03:30:51;101174.06;;;12.04;71.58
6567;BME280;3317;43.994;22.878;2023-03-23T03:33:21;101173.09;;;12.05;71.69
6567;BME280;3317;43.994;22.878;2023-03-23T03:35:53;101134.19;;;11.76;71.31
6567;BME280;3317;43.994;22.878;2023-03-23T03:38:21;101187.38;;;12.07;71.12
6567;BME280;3317;43.994;22.878;2023-03-23T03:40:48;101181.75;;;12.08;71.71
6567;BME280;3317;43.994;22.878;2023-03-23T03:43:15;101186.38;;;12.08;71.97
6567;BME280;3317;43.994;22.878;2023-03-23T03:45:42;101184.34;;;12.10;72.41
6567;BME280;3317;43.994;22.878;2023-03-23T03:48:10;101192.63;;;12.08;72.59
6567;BME280;3317;43.994;22.878;2023-03-23T03:50:37;101188.06;;;12.09;72.34
6567;BME280;3317;43.994;22.878;2023-03-23T03:53:06;101190.78;;;12.09;72.40
6567;BME280;3317;43.994;22.878;2023-03-23T03:55:33;101188.91;;;12.09;72.54
6567;BME280;3317;43.994;22.878;2023-03-23T03:58:01;101166.84;;;11.94;72.70
6567;BME280;3317;43.994;22.878;2023-03-23T04:00:29;101190.09;;;12.07;72.83
6567;BME280;3317;43.994;22.878;2023-03-23T04:02:56;101188.38;;;12.06;73.26
6567;BME280;3317;43.994;22.878;2023-03-23T04:05:25;101183.97;;;12.05;73.24
6567;BME280;3317;43.994;22.878;2023-03-23T04:07:54;101184.78;;;12.05;73.33
6567;BME280;3317;43.994;22.878;2023-03-23T04:10:29;101187.50;;;12.05;73.30
6567;BME280;3317;43.994;22.878;2023-03-23T04:12:56;101181.25;;;12.05;73.33
6567;BME280;3317;43.994;22.878;2023-03-23T04:18:09;101190.38;;;12.04;72.99
6567;BME280;3317;43.994;22.878;2023-03-23T04:20:37;101189.53;;;12.03;71.90
6567;BME280;3317;43.994;22.878;2023-03-23T04:23:05;101191.53;;;12.01;71.32
6567;BME280;3317;43.994;22.878;2023-03-23T04:25:33;101188.09;;;11.99;72.22
6567;BME280;3317;43.994;22.878;2023-03-23T04:28:01;101133.25;;;11.67;71.22
6567;BME280;3317;43.994;22.878;2023-03-23T04:30:28;101196.81;;;12.03;70.01
6567;BME280;3317;43.994;22.878;2023-03-23T04:32:57;101195.81;;;12.04;71.45
6567;BME280;3317;43.994;22.878;2023-03-23T04:35:27;101194.97;;;12.03;72.04
6567;BME280;3317;43.994;22.878;2023-03-23T04:37:55;101192.38;;;12.02;71.42
6567;BME280;3317;43.994;22.878;2023-03-23T04:40:23;101194.09;;;12.03;72.16
6567;BME280;3317;43.994;22.878;2023-03-23T04:42:51;101195.09;;;12.02;72.87
6567;BME280;3317;43.994;22.878;2023-03-23T04:45:23;101191.53;;;12.01;72.99
6567;BME280;3317;43.994;22.878;2023-03-23T04:47:51;101199.81;;;12.00;72.88
6567;BME280;3317;43.994;22.878;2023-03-23T04:50:24;101197.28;;;11.98;72.87
6567;BME280;3317;43.994;22.878;2023-03-23T04:52:52;101196.72;;;11.94;73.15
6567;BME280;3317;43.994;22.878;2023-03-23T04:55:23;101200.44;;;11.93;72.87
6567;BME280;3317;43.994;22.878;2023-03-23T04:57:52;101206.88;;;11.92;72.87
6567;BME280;3317;43.994;22.878;2023-03-23T05:00:20;101208.72;;;11.92;72.43
6567;BME280;3317;43.994;22.878;2023-03-23T05:02:47;101208.16;;;11.88;72.86
6567;BME280;3317;43.994;22.878;2023-03-23T05:05:17;101209.88;;;11.89;73.07
6567;BME280;3317;43.994;22.878;2023-03-23T05:07:44;101210.03;;;11.88;73.24
6567;BME280;3317;43.994;22.878;2023-03-23T05:10:12;101211.88;;;11.87;72.50
6567;BME280;3317;43.994;22.878;2023-03-23T05:12:39;101220.72;;;11.89;71.23
6567;BME280;3317;43.994;22.878;2023-03-23T05:15:09;101237.03;;;11.89;70.63
6567;BME280;3317;43.994;22.878;2023-03-23T05:17:36;101223.19;;;11.82;70.81
6567;BME280;3317;43.994;22.878;2023-03-23T05:20:05;101225.50;;;11.77;71.74
6567;BME280;3317;43.994;22.878;2023-03-23T05:22:35;101230.63;;;11.80;72.22
6567;BME280;3317;43.994;22.878;2023-03-23T05:25:04;101207.56;;;11.66;70.93
6567;BME280;3317;43.994;22.878;2023-03-23T05:27:34;101237.94;;;11.80;71.18
6567;BME280;3317;43.994;22.878;2023-03-23T05:30:01;101243.38;;;11.80;71.65
6567;BME280;3317;43.994;22.878;2023-03-23T05:32:31;101239.66;;;11.81;71.30
6567;BME280;3317;43.994;22.878;2023-03-23T05:34:58;101234.81;;;11.75;71.66
6567;BME280;3317;43.994;22.878;2023-03-23T05:37:27;101223.69;;;11.68;71.97
6567;BME280;3317;43.994;22.878;2023-03-23T05:39:57;101232.84;;;11.67;72.02
6567;BME280;3317;43.994;22.878;2023-03-23T05:42:30;101247.38;;;11.76;71.58
6567;BME280;3317;43.994;22.878;2023-03-23T05:44:57;101245.66;;;11.75;71.28
6567;BME280;3317;43.994;22.878;2023-03-23T05:47:26;101245.38;;;11.78;72.44
6567;BME280;3317;43.994;22.878;2023-03-23T05:49:54;101253.50;;;11.78;73.00
6567;BME280;3317;43.994;22.878;2023-03-23T05:52:21;101257.78;;;11.80;72.43
6567;BME280;3317;43.994;22.878;2023-03-23T05:54:49;101237.13;;;11.69;72.40
6567;BME280;3317;43.994;22.878;2023-03-23T05:57:17;101240.84;;;11.68;71.38
6567;BME280;3317;43.994;22.878;2023-03-23T05:59:47;101263.09;;;11.82;71.46
6567;BME280;3317;43.994;22.878;2023-03-23T06:02:14;101217.47;;;11.48;71.30
6567;BME280;3317;43.994;22.878;2023-03-23T06:04:41;101275.97;;;11.80;72.31
6567;BME280;3317;43.994;22.878;2023-03-23T06:07:09;101266.50;;;11.84;72.44
6567;BME280;3317;43.994;22.878;2023-03-23T06:09:39;101267.91;;;11.88;73.16
6567;BME280;3317;43.994;22.878;2023-03-23T06:12:08;101260.94;;;11.86;72.37
6567;BME280;3317;43.994;22.878;2023-03-23T06:14:37;101275.78;;;11.91;72.95
6567;BME280;3317;43.994;22.878;2023-03-23T06:17:04;101280.66;;;11.88;71.97
6567;BME280;3317;43.994;22.878;2023-03-23T06:19:31;101274.03;;;11.90;71.85
6567;BME280;3317;43.994;22.878;2023-03-23T06:21:59;101276.47;;;11.93;72.50
6567;BME280;3317;43.994;22.878;2023-03-23T06:24:28;101276.75;;;11.90;72.37
6567;BME280;3317;43.994;22.878;2023-03-23T06:26:55;101281.22;;;11.91;71.73
6567;BME280;3317;43.994;22.878;2023-03-23T06:29:22;101231.44;;;11.63;71.40
6567;BME280;3317;43.994;22.878;2023-03-23T06:31:52;101274.03;;;11.90;72.31
6567;BME280;3317;43.994;22.878;2023-03-23T06:34:21;101291.06;;;11.92;72.83
6567;BME280;3317;43.994;22.878;2023-03-23T06:36:48;101282.31;;;11.98;72.36
6567;BME280;3317;43.994;22.878;2023-03-23T06:39:15;101279.59;;;11.98;72.00
6567;BME280;3317;43.994;22.878;2023-03-23T06:41:43;101288.16;;;12.04;72.42
6567;BME280;3317;43.994;22.878;2023-03-23T06:44:11;101283.16;;;12.09;72.18
6567;BME280;3317;43.994;22.878;2023-03-23T06:46:39;101287.59;;;12.10;70.67
6567;BME280;3317;43.994;22.878;2023-03-23T06:49:06;101271.16;;;12.02;70.89
6567;BME280;3317;43.994;22.878;2023-03-23T06:51:34;101288.97;;;12.14;71.13
6567;BME280;3317;43.994;22.878;2023-03-23T06:54:01;101281.75;;;12.05;71.90
6567;BME280;3317;43.994;22.878;2023-03-23T06:56:28;101287.88;;;12.07;72.26
6567;BME280;3317;43.994;22.878;2023-03-23T06:58:57;101291.47;;;11.97;72.92
6567;BME280;3317;43.994;22.878;2023-03-23T07:01:24;101289.91;;;11.95;73.26
6567;BME280;3317;43.994;22.878;2023-03-23T07:03:52;101296.78;;;11.89;73.35
6567;BME280;3317;43.994;22.878;2023-03-23T07:06:19;101305.09;;;11.88;73.90
6567;BME280;3317;43.994;22.878;2023-03-23T07:08:46;101301.38;;;11.89;73.93
6567;BME280;3317;43.994;22.878;2023-03-23T07:11:13;101300.94;;;11.93;73.72
6567;BME280;3317;43.994;22.878;2023-03-23T07:13:40;101305.75;;;12.00;73.42
6567;BME280;3317;43.994;22.878;2023-03-23T07:16:09;101304.19;;;12.07;73.06
6567;BME280;3317;43.994;22.878;2023-03-23T07:18:36;101300.84;;;12.13;72.87
6567;BME280;3317;43.994;22.878;2023-03-23T07:21:04;101303.81;;;12.20;72.93
6567;BME280;3317;43.994;22.878;2023-03-23T07:23:31;101311.09;;;12.29;72.58
6567;BME280;3317;43.994;22.878;2023-03-23T07:25:58;101297.88;;;12.34;72.20
6567;BME280;3317;43.994;22.878;2023-03-23T07:28:26;101309.72;;;12.43;71.91
6567;BME280;3317;43.994;22.878;2023-03-23T07:30:53;101306.53;;;12.48;71.86
6567;BME280;3317;43.994;22.878;2023-03-23T07:33:21;101314.22;;;12.52;71.63
6567;BME280;3317;43.994;22.878;2023-03-23T07:35:48;101305.75;;;12.56;71.74
6567;BME280;3317;43.994;22.878;2023-03-23T07:38:15;101305.03;;;12.63;71.51
6567;BME280;3317;43.994;22.878;2023-03-23T07:40:42;101309.84;;;12.70;71.87
6567;BME280;3317;43.994;22.878;2023-03-23T07:43:09;101313.09;;;12.73;72.14
6567;BME280;3317;43.994;22.878;2023-03-23T07:45:36;101288.72;;;12.63;72.20
6567;BME280;3317;43.994;22.878;2023-03-23T07:48:03;101306.75;;;12.82;71.82
6567;BME280;3317;43.994;22.878;2023-03-23T07:50:32;101310.69;;;12.88;71.42
6567;BME280;3317;43.994;22.878;2023-03-23T07:53:00;101307.34;;;12.94;71.52
6567;BME280;3317;43.994;22.878;2023-03-23T07:55:27;101314.03;;;13.00;71.63
6567;BME280;3317;43.994;22.878;2023-03-23T07:57:54;101305.97;;;13.08;71.70
6567;BME280;3317;43.994;22.878;2023-03-23T08:00:22;101308.03;;;13.15;71.49
6567;BME280;3317;43.994;22.878;2023-03-23T08:02:52;101316.44;;;13.21;71.55
6567;BME280;3317;43.994;22.878;2023-03-23T08:05:21;101318.69;;;13.26;71.42
6567;BME280;3317;43.994;22.878;2023-03-23T08:07:50;101312.34;;;13.17;71.02
6567;BME280;3317;43.994;22.878;2023-03-23T08:10:17;101306.66;;;13.10;71.25
6567;BME280;3317;43.994;22.878;2023-03-23T08:12:44;101310.00;;;13.04;71.55
6567;BME280;3317;43.994;22.878;2023-03-23T08:15:13;101327.72;;;13.08;71.52
6567;BME280;3317;43.994;22.878;2023-03-23T08:17:41;101316.13;;;13.06;71.90
6567;BME280;3317;43.994;22.878;2023-03-23T08:20:09;101316.13;;;12.88;72.11
6567;BME280;3317;43.994;22.878;2023-03-23T08:22:39;101328.88;;;12.88;72.18
6567;BME280;3317;43.994;22.878;2023-03-23T08:25:09;101332.31;;;12.90;72.76
6567;BME280;3317;43.994;22.878;2023-03-23T08:27:36;101324.56;;;12.95;72.68
6567;BME280;3317;43.994;22.878;2023-03-23T08:30:08;101266.00;;;12.73;75.52
6567;BME280;3317;43.994;22.878;2023-03-23T08:32:36;101321.41;;;13.26;75.90
6567;BME280;3317;43.994;22.878;2023-03-23T08:35:04;101319.13;;;13.40;75.12
6567;BME280;3317;43.994;22.878;2023-03-23T08:37:31;101328.66;;;13.54;74.95
6567;BME280;3317;43.994;22.878;2023-03-23T08:39:58;101322.53;;;13.60;73.01
6567;BME280;3317;43.994;22.878;2023-03-23T08:42:27;101324.31;;;13.69;71.62
6567;BME280;3317;43.994;22.878;2023-03-23T08:44:54;101320.09;;;13.75;70.57
6567;BME280;3317;43.994;22.878;2023-03-23T08:47:21;101323.94;;;13.90;69.98
6567;BME280;3317;43.994;22.878;2023-03-23T08:49:48;101327.56;;;13.99;70.02
6567;BME280;3317;43.994;22.878;2023-03-23T08:52:18;101330.16;;;14.09;69.07
6567;BME280;3317;43.994;22.878;2023-03-23T08:54:46;101324.78;;;14.26;69.47
6567;BME280;3317;43.994;22.878;2023-03-23T08:57:14;101315.41;;;14.28;69.08
6567;BME280;3317;43.994;22.878;2023-03-23T08:59:42;101327.91;;;14.47;68.76
6567;BME280;3317;43.994;22.878;2023-03-23T09:02:10;101308.63;;;14.32;67.95
6567;BME280;3317;43.994;22.878;2023-03-23T09:04:38;101331.03;;;14.53;67.52
6567;BME280;3317;43.994;22.878;2023-03-23T09:07:08;101334.97;;;14.58;67.45
6567;BME280;3317;43.994;22.878;2023-03-23T09:09:36;101332.78;;;14.70;67.12
6567;BME280;3317;43.994;22.878;2023-03-23T09:12:05;101336.91;;;14.74;67.35
6567;BME280;3317;43.994;22.878;2023-03-23T09:14:32;101329.44;;;14.93;67.27
6567;BME280;3317;43.994;22.878;2023-03-23T09:17:01;101314.59;;;15.04;67.61
6567;BME280;3317;43.994;22.878;2023-03-23T09:19:28;101324.00;;;15.34;66.50
6567;BME280;3317;43.994;22.878;2023-03-23T09:21:55;101323.50;;;15.39;65.35
6567;BME280;3317;43.994;22.878;2023-03-23T09:24:22;101325.16;;;15.57;65.77
6567;BME280;3317;43.994;22.878;2023-03-23T09:26:49;101322.91;;;15.85;67.02
6567;BME280;3317;43.994;22.878;2023-03-23T09:29:16;101316.38;;;16.11;65.84
6567;BME280;3317;43.994;22.878;2023-03-23T09:31:44;101316.28;;;16.28;65.08
6567;BME280;3317;43.994;22.878;2023-03-23T09:34:13;101311.97;;;16.42;63.28
6567;BME280;3317;43.994;22.878;2023-03-23T09:36:40;101307.59;;;16.56;62.86
6567;BME280;3317;43.994;22.878;2023-03-23T09:39:08;101299.31;;;16.72;62.43
6567;BME280;3317;43.994;22.878;2023-03-23T09:41:46;101305.22;;;16.84;61.23
6567;BME280;3317;43.994;22.878;2023-03-23T09:44:23;101302.88;;;16.73;60.39
6567;BME280;3317;43.994;22.878;2023-03-23T09:46:58;101286.94;;;16.53;60.65
6567;BME280;3317;43.994;22.878;2023-03-23T09:49:30;101305.38;;;16.83;61.90
6567;BME280;3317;43.994;22.878;2023-03-23T09:52:02;101306.75;;;16.87;60.29
6567;BME280;3317;43.994;22.878;2023-03-23T09:54:35;101307.94;;;16.84;59.91
6567;BME280;3317;43.994;22.878;2023-03-23T09:57:05;101307.53;;;16.72;60.22
6567;BME280;3317;43.994;22.878;2023-03-23T09:59:42;101306.16;;;16.68;60.54
6567;BME280;3317;43.994;22.878;2023-03-23T10:02:13;101301.94;;;16.89;60.47
6567;BME280;3317;43.994;22.878;2023-03-23T10:04:46;101292.03;;;16.88;59.40
6567;BME280;3317;43.994;22.878;2023-03-23T10:07:15;101291.22;;;16.79;58.09
6567;BME280;3317;43.994;22.878;2023-03-23T10:09:44;101282.94;;;16.64;57.99
6567;BME280;3317;43.994;22.878;2023-03-23T10:12:20;101285.50;;;16.89;58.86
6567;BME280;3317;43.994;22.878;2023-03-23T10:14:55;101290.50;;;17.09;58.34
6567;BME280;3317;43.994;22.878;2023-03-23T10:17:28;101277.78;;;16.93;57.02
6567;BME280;3317;43.994;22.878;2023-03-23T10:20:09;101274.31;;;16.99;57.32
6567;BME280;3317;43.994;22.878;2023-03-23T10:22:46;101285.56;;;17.27;57.89
6567;BME280;3317;43.994;22.878;2023-03-23T10:25:19;101282.22;;;17.55;57.01
6567;BME280;3317;43.994;22.878;2023-03-23T10:27:52;101273.25;;;17.92;57.96
6567;BME280;3317;43.994;22.878;2023-03-23T10:30:24;101280.84;;;17.90;55.24
6567;BME280;3317;43.994;22.878;2023-03-23T10:32:56;101275.22;;;17.98;55.16
6567;BME280;3317;43.994;22.878;2023-03-23T10:35:30;101273.25;;;17.92;55.01
6567;BME280;3317;43.994;22.878;2023-03-23T10:38:01;101277.53;;;17.94;54.73
6567;BME280;3317;43.994;22.878;2023-03-23T10:40:30;101275.16;;;18.06;54.92
6567;BME280;3317;43.994;22.878;2023-03-23T10:43:00;101279.31;;;18.02;54.40
6567;BME280;3317;43.994;22.878;2023-03-23T10:45:29;101269.09;;;17.96;54.33
6567;BME280;3317;43.994;22.878;2023-03-23T10:48:04;101234.56;;;18.01;54.91
6567;BME280;3317;43.994;22.878;2023-03-23T10:50:37;101264.22;;;18.43;54.77
6567;BME280;3317;43.994;22.878;2023-03-23T10:53:13;101256.13;;;18.56;53.22
6567;BME280;3317;43.994;22.878;2023-03-23T10:55:42;101257.78;;;18.72;53.25
6567;BME280;3317;43.994;22.878;2023-03-23T10:58:12;101259.47;;;18.95;52.64
6567;BME280;3317;43.994;22.878;2023-03-23T11:00:41;101254.16;;;19.09;52.46
6567;BME280;3317;43.994;22.878;2023-03-23T11:03:33;101254.53;;;19.06;51.74
6567;BME280;3317;43.994;22.878;2023-03-23T11:06:05;101251.19;;;18.89;50.75
6567;BME280;3317;43.994;22.878;2023-03-23T11:08:36;101232.25;;;18.72;51.37
6567;BME280;3317;43.994;22.878;2023-03-23T11:11:10;101244.75;;;18.81;51.46
6567;BME280;3317;43.994;22.878;2023-03-23T11:13:47;101242.41;;;18.78;50.35
6567;BME280;3317;43.994;22.878;2023-03-23T11:16:24;101244.19;;;18.86;50.17
6567;BME280;3317;43.994;22.878;2023-03-23T11:18:52;101245.19;;;19.00;50.41
6567;BME280;3317;43.994;22.878;2023-03-23T11:21:22;101241.63;;;18.63;48.86
6567;BME280;3317;43.994;22.878;2023-03-23T11:23:52;101238.94;;;18.26;50.66
6567;BME280;3317;43.994;22.878;2023-03-23T11:26:22;101126.59;;;17.66;50.81
6567;BME280;3317;43.994;22.878;2023-03-23T11:28:55;101233.44;;;17.96;50.99
6567;BME280;3317;43.994;22.878;2023-03-23T11:31:23;101195.19;;;17.57;51.50
6567;BME280;3317;43.994;22.878;2023-03-23T11:33:55;101231.38;;;17.83;52.53
6567;BME280;3317;43.994;22.878;2023-03-23T11:36:31;101220.44;;;17.83;52.24
6567;BME280;3317;43.994;22.878;2023-03-23T11:38:59;101229.97;;;17.72;52.14
6567;BME280;3317;43.994;22.878;2023-03-23T11:41:37;101225.25;;;17.66;52.63
6567;BME280;3317;43.994;22.878;2023-03-23T11:44:11;101196.78;;;17.52;53.33
6567;BME280;3317;43.994;22.878;2023-03-23T11:46:45;101207.38;;;17.85;53.17
6567;BME280;3317;43.994;22.878;2023-03-23T11:49:25;101204.25;;;18.03;52.11
6567;BME280;3317;43.994;22.878;2023-03-23T11:51:59;101197.72;;;18.41;51.90
6567;BME280;3317;43.994;22.878;2023-03-23T11:54:32;101193.53;;;18.67;50.95
6567;BME280;3317;43.994;22.878;2023-03-23T11:57:00;101190.84;;;18.74;49.42
6567;BME280;3317;43.994;22.878;2023-03-23T11:59:28;101186.69;;;18.56;48.93
6567;BME280;3317;43.994;22.878;2023-03-23T12:02:05;101192.16;;;18.56;49.55
6567;BME280;3317;43.994;22.878;2023-03-23T12:04:57;101181.97;;;18.50;49.23
6567;BME280;3317;43.994;22.878;2023-03-23T12:07:54;101185.50;;;18.43;49.05
6567;BME280;3317;43.994;22.878;2023-03-23T12:10:27;101187.84;;;18.47;49.58
6567;BME280;3317;43.994;22.878;2023-03-23T12:13:24;101176.53;;;18.56;49.43
6567;BME280;3317;43.994;22.878;2023-03-23T12:16:02;101175.81;;;18.48;49.03
6567;BME280;3317;43.994;22.878;2023-03-23T12:18:40;101162.44;;;18.60;48.56
6567;BME280;3317;43.994;22.878;2023-03-23T12:21:18;101162.34;;;18.75;48.54
6567;BME280;3317;43.994;22.878;2023-03-23T12:23:56;101165.91;;;18.68;48.11
6567;BME280;3317;43.994;22.878;2023-03-23T12:26:28;101160.81;;;18.65;48.54
6567;BME280;3317;43.994;22.878;2023-03-23T12:29:19;101151.06;;;18.41;48.23
6567;BME280;3317;43.994;22.878;2023-03-23T12:32:00;101148.41;;;18.26;48.13
6567;BME280;3317;43.994;22.878;2023-03-23T12:34:40;101153.16;;;18.39;49.10
6567;BME280;3317;43.994;22.878;2023-03-23T12:37:21;101150.53;;;18.52;48.69
6567;BME280;3317;43.994;22.878;2023-03-23T12:42:55;101147.53;;;18.47;47.76
6567;BME280;3317;43.994;22.878;2023-03-23T12:45:46;101136.56;;;18.47;47.73
6567;BME280;3317;43.994;22.878;2023-03-23T12:48:17;101140.66;;;18.36;47.99
6567;BME280;3317;43.994;22.878;2023-03-23T12:51:03;101110.13;;;18.18;48.11
6567;BME280;3317;43.994;22.878;2023-03-23T12:53:42;101129.50;;;18.38;48.20
6567;BME280;3317;43.994;22.878;2023-03-23T12:56:25;101123.75;;;18.54;48.43
6567;BME280;3317;43.994;22.878;2023-03-23T12:59:01;101115.50;;;18.54;47.30
6567;BME280;3317;43.994;22.878;2023-03-23T13:01:33;101125.72;;;18.39;46.62
6567;BME280;3317;43.994;22.878;2023-03-23T13:04:06;101117.94;;;18.42;47.19
6567;BME280;3317;43.994;22.878;2023-03-23T13:06:36;101111.88;;;18.25;47.42
6567;BME280;3317;43.994;22.878;2023-03-23T13:09:07;101118.22;;;18.26;47.68
6567;BME280;3317;43.994;22.878;2023-03-23T13:11:39;101106.38;;;18.04;47.36
6567;BME280;3317;43.994;22.878;2023-03-23T13:14:21;101103.81;;;18.02;47.54
6567;BME280;3317;43.994;22.878;2023-03-23T13:16:58;101099.47;;;18.08;48.21
6567;BME280;3317;43.994;22.878;2023-03-23T13:19:34;101103.75;;;17.95;48.20
6567;BME280;3317;43.994;22.878;2023-03-23T13:22:09;101099.97;;;17.81;48.08
6567;BME280;3317;43.994;22.878;2023-03-23T13:24:43;101094.25;;;17.76;48.17
6567;BME280;3317;43.994;22.878;2023-03-23T13:27:11;101096.63;;;17.64;48.42
6567;BME280;3317;43.994;22.878;2023-03-23T13:29:45;101090.72;;;17.45;48.57